createdAt,value
2022-11-16T00:02:14.336Z,14.63
2022-11-16T00:07:10.262Z,14.27
2022-11-16T00:09:39.236Z,13.93
2022-11-16T00:12:09.881Z,13.68
2022-11-16T00:14:37.950Z,12.63
2022-11-16T00:17:06.010Z,12.18
2022-11-16T00:19:33.867Z,12.80
2022-11-16T00:22:01.323Z,12.30
2022-11-16T00:24:29.390Z,13.07
2022-11-16T00:26:57.360Z,12.60
2022-11-16T00:29:26.617Z,12.10
2022-11-16T00:31:54.981Z,12.05
2022-11-16T00:34:23.897Z,11.93
2022-11-16T00:36:52.266Z,11.63
2022-11-16T00:39:20.937Z,11.07
2022-11-16T00:41:49.053Z,10.85
2022-11-16T00:46:44.320Z,12.20
2022-11-16T00:49:12.275Z,10.77
2022-11-16T00:51:41.254Z,12.38
2022-11-16T00:54:10.379Z,11.55
2022-11-16T00:56:39.706Z,12.93
2022-11-16T00:59:08.158Z,11.35
2022-11-16T01:01:35.866Z,12.35
2022-11-16T01:04:03.780Z,11.95
2022-11-16T01:06:31.561Z,12.23
2022-11-16T01:09:01.863Z,12.73
2022-11-16T01:11:47.988Z,12.98
2022-11-16T01:14:15.974Z,13.15
2022-11-16T01:16:44.780Z,12.18
2022-11-16T01:19:12.677Z,12.18
2022-11-16T01:21:40.318Z,13.32
2022-11-16T01:26:36.830Z,12.73
2022-11-16T01:29:05.251Z,12.23
2022-11-16T01:31:37.504Z,12.10
2022-11-16T01:34:06.348Z,11.82
2022-11-16T01:36:35.513Z,11.88
2022-11-16T01:39:05.085Z,10.32
2022-11-16T01:41:43.148Z,11.20
2022-11-16T01:44:32.331Z,11.45
2022-11-16T01:47:12.360Z,10.57
2022-11-16T01:49:48.658Z,9.73
2022-11-16T01:52:23.175Z,8.98
2022-11-16T01:54:54.097Z,8.90
2022-11-16T01:57:28.055Z,8.07
2022-11-16T02:00:08.321Z,8.60
2022-11-16T02:02:44.650Z,9.07
2022-11-16T02:05:29.088Z,7.50
2022-11-16T02:08:42.161Z,8.82
2022-11-16T02:11:30.567Z,9.70
2022-11-16T02:14:01.504Z,9.43
2022-11-16T02:16:32.074Z,9.73
2022-11-16T02:19:15.389Z,8.27
2022-11-16T02:22:08.927Z,9.30
2022-11-16T02:24:55.183Z,9.23
2022-11-16T02:27:31.795Z,10.55
2022-11-16T02:29:59.912Z,9.00
2022-11-16T02:32:28.070Z,9.23
2022-11-16T02:35:10.403Z,8.38
2022-11-16T02:37:47.159Z,7.20
2022-11-16T02:40:17.793Z,8.40
2022-11-16T02:42:52.963Z,7.55
2022-11-16T02:45:27.270Z,7.68
2022-11-16T02:48:01.563Z,6.05
2022-11-16T02:50:31.068Z,6.95
2022-11-16T02:52:59.083Z,6.47
2022-11-16T02:55:32.856Z,8.13
2022-11-16T02:58:02.972Z,7.55
2022-11-16T03:00:48.427Z,6.88
2022-11-16T03:03:19.348Z,6.93
2022-11-16T03:05:59.287Z,6.70
2022-11-16T03:08:34.193Z,7.10
2022-11-16T03:11:26.126Z,7.65
2022-11-16T03:14:03.609Z,7.80
2022-11-16T03:16:36.443Z,8.23
2022-11-16T03:19:08.434Z,7.60
2022-11-16T03:21:52.004Z,6.80
2022-11-16T03:24:21.372Z,6.85
2022-11-16T03:27:17.697Z,6.38
2022-11-16T03:30:01.570Z,6.20
2022-11-16T03:32:38.824Z,6.25
2022-11-16T03:35:16.150Z,6.95
2022-11-16T03:37:46.411Z,5.75
2022-11-16T03:40:15.126Z,4.95
2022-11-16T03:42:44.121Z,4.93
2022-11-16T03:45:13.616Z,4.88
2022-11-16T03:47:42.916Z,4.78
2022-11-16T03:52:40.652Z,4.30
2022-11-16T03:57:36.268Z,4.10
2022-11-16T04:00:05.596Z,4.38
2022-11-16T04:02:53.420Z,4.30
2022-11-16T04:05:41.865Z,4.45
2022-11-16T04:08:36.718Z,3.53
2022-11-16T04:11:24.323Z,3.88
2022-11-16T04:14:11.263Z,3.30
2022-11-16T04:17:00.827Z,3.40
2022-11-16T04:19:46.855Z,3.42
2022-11-16T04:22:44.845Z,3.80
2022-11-16T04:25:32.197Z,3.05
2022-11-16T04:28:14.740Z,3.53
2022-11-16T04:31:10.752Z,3.40
2022-11-16T04:34:00.112Z,3.10
2022-11-16T04:39:15.872Z,2.80
2022-11-16T04:42:04.247Z,3.17
2022-11-16T04:47:25.217Z,3.33
2022-11-16T04:49:53.358Z,4.05
2022-11-16T04:52:23.931Z,3.17
2022-11-16T04:54:54.365Z,3.40
2022-11-16T04:57:23.038Z,3.63
2022-11-16T04:59:51.245Z,3.13
2022-11-16T05:02:19.495Z,3.65
2022-11-16T05:04:54.224Z,3.28
2022-11-16T05:07:23.391Z,3.33
2022-11-16T05:09:56.164Z,3.83
2022-11-16T05:12:26.424Z,3.03
2022-11-16T05:14:58.325Z,3.60
2022-11-16T05:17:28.552Z,2.60
2022-11-16T05:20:17.147Z,4.25
2022-11-16T05:22:56.004Z,3.45
2022-11-16T05:25:26.448Z,3.05
2022-11-16T05:27:54.997Z,2.97
2022-11-16T05:32:50.189Z,3.28
2022-11-16T05:35:20.674Z,3.00
2022-11-16T05:37:48.153Z,2.90
2022-11-16T05:40:16.955Z,3.05
2022-11-16T05:42:59.025Z,2.90
2022-11-16T05:45:29.857Z,3.22
2022-11-16T05:48:00.003Z,3.88
2022-11-16T05:50:28.055Z,2.85
2022-11-16T05:53:11.254Z,2.70
2022-11-16T05:55:40.087Z,3.28
2022-11-16T05:58:10.969Z,3.10
2022-11-16T06:00:39.240Z,3.53
2022-11-16T06:03:09.173Z,3.08
2022-11-16T06:05:40.622Z,3.30
2022-11-16T06:08:12.101Z,3.35
2022-11-16T06:10:40.073Z,3.63
2022-11-16T06:13:09.100Z,3.38
2022-11-16T06:15:41.329Z,3.70
2022-11-16T06:18:10.434Z,3.53
2022-11-16T06:20:40.092Z,3.70
2022-11-16T06:23:09.398Z,2.67
2022-11-16T06:25:39.743Z,3.30
2022-11-16T06:28:08.516Z,3.70
2022-11-16T06:30:39.896Z,3.47
2022-11-16T06:33:09.131Z,3.65
2022-11-16T06:35:38.232Z,3.78
2022-11-16T06:38:05.804Z,4.03
2022-11-16T06:40:34.124Z,4.30
2022-11-16T06:43:04.585Z,4.05
2022-11-16T06:45:32.368Z,3.88
2022-11-16T06:48:01.846Z,4.30
2022-11-16T06:50:30.258Z,5.05
2022-11-16T06:53:00.872Z,4.63
2022-11-16T06:55:30.096Z,4.70
2022-11-16T06:57:58.218Z,4.50
2022-11-16T07:00:28.431Z,6.38
2022-11-16T07:02:56.735Z,6.00
2022-11-16T07:05:24.633Z,4.85
2022-11-16T07:07:55.935Z,4.80
2022-11-16T07:10:25.487Z,4.82
2022-11-16T07:12:55.044Z,5.47
2022-11-16T07:15:24.895Z,7.13
2022-11-16T07:17:53.146Z,4.78
2022-11-16T07:20:21.172Z,4.60
2022-11-16T07:25:18.257Z,6.13
2022-11-16T07:30:14.445Z,6.25
2022-11-16T07:35:20.359Z,6.13
2022-11-16T07:37:48.112Z,6.15
2022-11-16T07:40:16.638Z,5.70
2022-11-16T07:42:46.160Z,5.65
2022-11-16T07:45:46.386Z,7.05
2022-11-16T07:48:13.984Z,6.03
2022-11-16T07:51:16.103Z,5.75
2022-11-16T07:53:55.646Z,7.07
2022-11-16T07:56:24.315Z,6.30
2022-11-16T07:58:51.885Z,6.68
2022-11-16T08:01:20.239Z,8.02
2022-11-16T08:03:53.972Z,7.28
2022-11-16T08:06:24.999Z,6.47
2022-11-16T08:08:58.298Z,7.07
2022-11-16T08:11:27.748Z,8.05
2022-11-16T08:13:57.161Z,7.38
2022-11-16T08:16:24.938Z,7.63
2022-11-16T08:19:02.343Z,8.25
2022-11-16T08:21:30.232Z,7.35
2022-11-16T08:26:27.805Z,9.00
2022-11-16T08:29:02.001Z,8.43
2022-11-16T08:31:34.253Z,6.70
2022-11-16T08:34:12.709Z,7.90
2022-11-16T08:36:44.432Z,7.60
2022-11-16T08:39:13.566Z,6.90
2022-11-16T08:41:42.473Z,7.20
2022-11-16T08:44:11.788Z,6.93
2022-11-16T08:46:43.514Z,6.60
2022-11-16T08:49:19.016Z,6.40
2022-11-16T08:51:47.421Z,7.00
2022-11-16T08:54:15.079Z,6.82
2022-11-16T08:56:44.480Z,6.50
2022-11-16T08:59:12.828Z,7.00
2022-11-16T09:01:46.105Z,7.15
2022-11-16T09:04:13.846Z,7.63
2022-11-16T09:06:46.031Z,7.15
2022-11-16T09:09:14.105Z,7.75
2022-11-16T09:11:41.957Z,7.95
2022-11-16T09:14:12.557Z,8.32
2022-11-16T09:16:40.663Z,8.38
2022-11-16T09:19:08.175Z,8.77
2022-11-16T09:21:37.706Z,8.32
2022-11-16T09:24:05.692Z,8.23
2022-11-16T09:26:33.607Z,8.40
2022-11-16T09:29:03.189Z,9.32
2022-11-16T09:31:34.836Z,9.10
2022-11-16T09:34:03.106Z,8.95
2022-11-16T09:36:31.200Z,8.27
2022-11-16T09:39:29.998Z,8.98
2022-11-16T09:41:50.122Z,7.57
2022-11-16T09:44:39.685Z,9.13
2022-11-16T09:47:19.043Z,8.38
2022-11-16T09:49:52.283Z,10.23
2022-11-16T09:52:34.067Z,9.15
2022-11-16T09:55:16.212Z,9.80
2022-11-16T09:57:45.128Z,8.98
2022-11-16T10:00:18.300Z,11.90
2022-11-16T10:02:51.927Z,8.82
2022-11-16T10:05:27.389Z,9.70
2022-11-16T10:08:18.310Z,7.85
2022-11-16T10:11:06.352Z,7.30
2022-11-16T10:14:09.766Z,6.28
2022-11-16T10:19:32.850Z,6.15
2022-11-16T10:22:21.768Z,8.05
2022-11-16T10:24:59.697Z,5.60
2022-11-16T10:27:41.832Z,5.65
2022-11-16T10:30:14.684Z,4.70
2022-11-16T10:32:54.728Z,5.50
2022-11-16T10:35:34.973Z,5.60
2022-11-16T10:38:10.703Z,4.40
2022-11-16T10:40:40.881Z,5.13
2022-11-16T10:43:15.704Z,4.80
2022-11-16T10:45:55.996Z,5.65
2022-11-16T10:48:42.579Z,5.95
2022-11-16T10:51:10.692Z,4.85
2022-11-16T10:53:40.958Z,4.80
2022-11-16T10:56:42.661Z,4.70
2022-11-16T10:59:15.527Z,5.07
2022-11-16T11:01:51.676Z,4.95
2022-11-16T11:04:19.922Z,5.25
2022-11-16T11:06:58.165Z,5.32
2022-11-16T11:09:32.583Z,5.50
2022-11-16T11:12:23.029Z,5.38
2022-11-16T11:15:10.816Z,5.63
2022-11-16T11:20:16.419Z,5.88
2022-11-16T11:23:00.704Z,6.53
2022-11-16T11:25:35.999Z,6.88
2022-11-16T11:28:28.015Z,6.07
2022-11-16T11:31:31.934Z,6.28
2022-11-16T11:34:17.512Z,6.25
2022-11-16T11:36:55.085Z,6.20
2022-11-16T11:39:23.112Z,5.57
2022-11-16T11:42:12.548Z,6.30
2022-11-16T11:44:52.908Z,5.20
2022-11-16T11:47:59.619Z,4.47
2022-11-16T11:50:27.879Z,5.43
2022-11-16T11:53:06.070Z,3.83
2022-11-16T11:55:34.447Z,3.95
2022-11-16T12:00:49.621Z,4.53
2022-11-16T12:03:47.229Z,4.67
2022-11-16T12:06:14.969Z,5.18
2022-11-16T12:09:06.416Z,5.10
2022-11-16T12:12:03.763Z,4.60
2022-11-16T12:14:49.742Z,4.60
2022-11-16T12:17:51.304Z,4.75
2022-11-16T12:21:00.315Z,5.15
2022-11-16T12:23:57.914Z,4.88
2022-11-16T12:26:43.745Z,5.00
2022-11-16T12:29:27.015Z,4.97
2022-11-16T12:32:26.975Z,4.30
2022-11-16T12:35:03.473Z,4.85
2022-11-16T12:38:08.933Z,4.35
2022-11-16T12:40:37.009Z,3.70
2022-11-16T12:43:06.139Z,4.20
2022-11-16T12:46:06.781Z,4.55
2022-11-16T12:49:08.612Z,6.38
2022-11-16T12:52:22.810Z,3.83
2022-11-16T12:58:03.951Z,4.10
2022-11-16T13:01:00.012Z,5.60
2022-11-16T13:03:43.208Z,4.20
2022-11-16T13:06:21.314Z,5.22
2022-11-16T13:09:07.828Z,3.97
2022-11-16T13:11:42.403Z,4.20
2022-11-16T13:14:30.274Z,4.28
2022-11-16T13:19:42.250Z,3.67
2022-11-16T13:25:58.439Z,3.58
2022-11-16T13:28:41.334Z,3.23
2022-11-16T13:31:22.302Z,3.17
2022-11-16T13:33:57.161Z,3.08
2022-11-16T13:36:43.964Z,3.13
2022-11-16T13:39:22.191Z,2.57
2022-11-16T13:42:15.007Z,2.60
2022-11-16T13:44:50.315Z,2.90
2022-11-16T13:47:30.912Z,2.60
2022-11-16T13:50:03.362Z,2.70
2022-11-16T13:55:43.879Z,2.28
2022-11-16T13:58:20.061Z,2.58
2022-11-16T14:01:06.160Z,3.15
2022-11-16T14:03:38.817Z,2.78
2022-11-16T14:06:14.054Z,2.42
2022-11-16T14:08:52.762Z,2.80
2022-11-16T14:11:34.334Z,3.17
2022-11-16T14:14:13.318Z,2.70
2022-11-16T14:16:45.790Z,2.45
2022-11-16T14:19:49.330Z,2.50
2022-11-16T14:22:33.987Z,2.90
2022-11-16T14:25:34.995Z,2.95
2022-11-16T14:28:12.657Z,3.75
2022-11-16T14:31:11.835Z,3.30
2022-11-16T14:33:41.465Z,3.63
2022-11-16T14:36:12.709Z,3.38
2022-11-16T14:38:43.027Z,3.13
2022-11-16T14:41:25.789Z,2.97
2022-11-16T14:43:59.301Z,2.92
2022-11-16T14:46:30.441Z,3.58
2022-11-16T14:49:01.816Z,2.88
2022-11-16T14:51:36.796Z,3.20
2022-11-16T14:54:20.463Z,3.80
2022-11-16T14:56:59.771Z,3.10
2022-11-16T14:59:29.182Z,3.10
2022-11-16T15:02:31.909Z,3.47
2022-11-16T15:05:01.501Z,3.55
2022-11-16T15:07:30.873Z,3.35
2022-11-16T15:10:00.589Z,3.15
2022-11-16T15:12:44.052Z,2.97
2022-11-16T15:15:18.208Z,2.72
2022-11-16T15:18:00.444Z,3.28
2022-11-16T15:20:35.440Z,3.40
2022-11-16T15:23:05.320Z,3.65
2022-11-16T15:25:40.364Z,3.47
2022-11-16T15:28:22.280Z,3.55
2022-11-16T15:31:02.044Z,4.00
2022-11-16T15:33:31.927Z,3.53
2022-11-16T15:36:32.257Z,3.72
2022-11-16T15:42:04.392Z,3.10
2022-11-16T15:44:33.273Z,2.80
2022-11-16T15:47:05.884Z,3.28
2022-11-16T15:49:38.468Z,3.15
2022-11-16T15:52:09.800Z,3.38
2022-11-16T15:55:00.698Z,3.10
2022-11-16T15:57:28.775Z,2.83
2022-11-16T15:59:57.810Z,5.30
2022-11-16T16:02:28.989Z,3.55
2022-11-16T16:04:57.132Z,3.75
2022-11-16T16:07:39.765Z,3.65
2022-11-16T16:10:23.256Z,2.55
2022-11-16T16:13:24.462Z,2.50
2022-11-16T16:16:26.477Z,3.00
2022-11-16T16:19:04.942Z,2.63
2022-11-16T16:21:46.028Z,2.47
2022-11-16T16:24:42.239Z,2.60
2022-11-16T16:27:17.304Z,3.10
2022-11-16T16:29:49.597Z,3.05
2022-11-16T16:32:45.492Z,2.67
2022-11-16T16:35:18.152Z,2.80
2022-11-16T16:37:49.691Z,3.30
2022-11-16T16:40:19.136Z,5.63
2022-11-16T16:46:07.831Z,3.80
2022-11-16T16:48:40.373Z,3.58
2022-11-16T16:51:16.366Z,3.42
2022-11-16T16:53:44.333Z,3.88
2022-11-16T16:56:16.657Z,4.18
2022-11-16T16:58:50.228Z,4.68
2022-11-16T17:01:17.964Z,3.83
2022-11-16T17:03:47.226Z,4.22
2022-11-16T17:06:15.254Z,4.22
2022-11-16T17:08:42.803Z,3.85
2022-11-16T17:11:12.734Z,3.67
2022-11-16T17:13:43.056Z,3.00
2022-11-16T17:16:10.644Z,3.92
2022-11-16T17:18:39.044Z,3.95
2022-11-16T17:21:09.369Z,4.38
2022-11-16T17:23:38.631Z,3.63
2022-11-16T17:26:07.849Z,4.10
2022-11-16T17:28:38.056Z,4.13
2022-11-16T17:31:10.766Z,4.57
2022-11-16T17:33:40.857Z,5.53
2022-11-16T17:36:14.867Z,5.25
2022-11-16T17:38:47.337Z,5.57
2022-11-16T17:41:17.874Z,6.00
2022-11-16T17:43:51.419Z,5.25
2022-11-16T17:56:27.385Z,5.53
2022-11-16T17:58:58.563Z,6.65
2022-11-16T18:01:33.581Z,7.13
2022-11-16T18:04:02.627Z,7.05
2022-11-16T18:06:33.535Z,7.30
2022-11-16T18:09:10.595Z,7.72
2022-11-16T18:11:41.049Z,7.93
2022-11-16T18:14:28.051Z,7.30
2022-11-16T18:20:08.722Z,9.07
2022-11-16T18:22:37.651Z,8.10
2022-11-16T18:25:45.774Z,8.02
2022-11-16T18:28:14.017Z,9.75
2022-11-16T18:30:42.249Z,8.45
2022-11-16T18:33:11.376Z,9.48
2022-11-16T18:35:39.344Z,10.15
2022-11-16T18:38:13.175Z,11.18
2022-11-16T18:40:41.498Z,10.57
2022-11-16T18:45:44.666Z,9.70
2022-11-16T18:50:40.773Z,9.13
2022-11-16T18:53:08.860Z,9.70
2022-11-16T18:55:36.989Z,12.38
2022-11-16T18:58:17.546Z,28.02
2022-11-16T19:00:52.910Z,11.65
2022-11-16T19:03:21.018Z,13.98
2022-11-16T19:08:24.063Z,12.70
2022-11-16T19:13:20.754Z,15.77
2022-11-16T19:15:50.190Z,11.75
2022-11-16T19:18:21.849Z,13.88
2022-11-16T19:20:50.148Z,12.70
2022-11-16T19:23:17.983Z,12.77
2022-11-16T19:25:46.138Z,12.90
2022-11-16T19:28:14.956Z,11.85
2022-11-16T19:30:42.796Z,10.75
2022-11-16T19:33:10.409Z,11.85
2022-11-16T19:35:38.152Z,12.95
2022-11-16T19:38:05.704Z,11.15
2022-11-16T19:40:34.768Z,13.20
2022-11-16T19:43:04.018Z,12.23
2022-11-16T19:45:34.107Z,12.40
2022-11-16T19:48:01.658Z,11.60
2022-11-16T19:50:29.809Z,10.80
2022-11-16T19:53:02.357Z,11.02
2022-11-16T19:55:33.769Z,12.73
2022-11-16T19:58:01.689Z,11.30
2022-11-16T20:00:29.633Z,10.93
2022-11-16T20:02:57.708Z,11.43
2022-11-16T20:10:15.434Z,10.98
2022-11-16T20:12:43.607Z,12.07
2022-11-16T20:15:11.576Z,11.82
2022-11-16T20:17:39.462Z,11.45
2022-11-16T20:20:07.535Z,10.02
2022-11-16T20:22:35.485Z,11.55
2022-11-16T20:25:05.224Z,11.43
2022-11-16T20:27:33.081Z,10.93
2022-11-16T20:30:04.960Z,11.50
2022-11-16T20:32:35.684Z,13.95
2022-11-16T20:35:03.836Z,12.77
2022-11-16T20:37:34.609Z,12.00
2022-11-16T20:40:04.078Z,11.63
2022-11-16T20:42:31.629Z,11.70
2022-11-16T20:44:59.804Z,11.63
2022-11-16T20:47:27.471Z,11.35
2022-11-16T20:49:55.212Z,14.60
2022-11-16T20:52:23.803Z,10.88
2022-11-16T20:54:51.793Z,11.43
2022-11-16T20:57:21.816Z,11.05
2022-11-16T20:59:49.684Z,10.73
2022-11-16T21:02:17.696Z,10.82
2022-11-16T21:07:14.106Z,10.82
2022-11-16T21:10:00.704Z,10.57
2022-11-16T21:12:47.178Z,9.30
2022-11-16T21:15:15.409Z,9.60
2022-11-16T21:17:43.518Z,9.52
2022-11-16T21:20:27.089Z,9.70
2022-11-16T21:22:55.841Z,8.90
2022-11-16T21:25:23.856Z,9.68
2022-11-16T21:27:55.184Z,9.35
2022-11-16T21:30:23.254Z,10.35
2022-11-16T21:32:50.752Z,11.05
2022-11-16T21:35:24.011Z,10.43
2022-11-16T21:37:51.442Z,10.57
2022-11-16T21:40:19.028Z,11.13
2022-11-16T21:42:47.585Z,11.48
2022-11-16T21:45:15.852Z,11.85
2022-11-16T21:47:43.508Z,11.90
2022-11-16T21:50:31.654Z,10.68
2022-11-16T21:53:00.612Z,10.82
2022-11-16T21:55:28.691Z,11.48
2022-11-16T21:57:58.244Z,10.65
2022-11-16T22:00:27.407Z,10.65
2022-11-16T22:02:55.609Z,10.18
2022-11-16T22:08:13.971Z,12.48
2022-11-16T22:10:41.535Z,11.43
2022-11-16T22:13:09.500Z,12.05
2022-11-16T22:15:37.670Z,11.48
2022-11-16T22:18:07.058Z,11.40
2022-11-16T22:20:35.578Z,13.07
2022-11-16T22:23:03.245Z,12.20
2022-11-16T22:25:31.138Z,13.25
2022-11-16T22:28:19.634Z,13.60
2022-11-16T22:33:20.999Z,15.60
2022-11-16T22:35:48.410Z,12.63
2022-11-16T22:38:16.344Z,13.32
2022-11-16T22:40:52.543Z,12.98
2022-11-16T22:43:22.264Z,12.85
2022-11-16T22:45:50.552Z,11.85
2022-11-16T22:50:49.239Z,8.52
2022-11-16T22:55:44.695Z,13.80
2022-11-16T22:58:12.167Z,14.63
2022-11-16T23:00:42.168Z,17.08
2022-11-16T23:03:10.119Z,13.93
2022-11-16T23:05:38.049Z,14.38
2022-11-16T23:08:05.798Z,11.90
2022-11-16T23:10:54.743Z,11.80
2022-11-16T23:16:09.529Z,12.40
2022-11-16T23:21:27.831Z,8.15
2022-11-16T23:24:24.967Z,10.50
2022-11-16T23:27:11.384Z,9.75
2022-11-16T23:29:38.986Z,11.70
2022-11-16T23:32:06.998Z,10.60
2022-11-16T23:34:34.514Z,12.73
2022-11-16T23:37:06.294Z,13.18
2022-11-16T23:39:34.559Z,9.88
2022-11-16T23:44:52.074Z,8.02
2022-11-16T23:47:20.076Z,8.63
2022-11-16T23:49:47.868Z,6.95
2022-11-16T23:52:16.015Z,8.75
2022-11-16T23:54:44.186Z,8.35
2022-11-16T23:57:12.676Z,6.25
2022-11-16T23:59:41.129Z,7.80
